sensor_id;sensor_type;location;lat;lon;timestamp;temperature;humidity
39655;DHT22;25336;59.944;11.010;2022-09-17T00:00:41;12.80;52.80
39655;DHT22;25336;59.944;11.010;2022-09-17T00:03:08;12.80;52.90
39655;DHT22;25336;59.944;11.010;2022-09-17T00:05:35;12.80;53.00
39655;DHT22;25336;59.944;11.010;2022-09-17T00:08:05;12.70;53.10
39655;DHT22;25336;59.944;11.010;2022-09-17T00:10:32;12.80;53.20
39655;DHT22;25336;59.944;11.010;2022-09-17T00:13:02;12.60;53.20
39655;DHT22;25336;59.944;11.010;2022-09-17T00:15:27;12.60;53.30
39655;DHT22;25336;59.944;11.010;2022-09-17T00:17:54;12.50;53.30
39655;DHT22;25336;59.944;11.010;2022-09-17T00:20:23;12.50;53.40
39655;DHT22;25336;59.944;11.010;2022-09-17T00:22:48;12.50;53.40
39655;DHT22;25336;59.944;11.010;2022-09-17T00:25:14;12.40;53.50
39655;DHT22;25336;59.944;11.010;2022-09-17T00:27:40;12.40;53.60
39655;DHT22;25336;59.944;11.010;2022-09-17T00:30:07;12.40;53.70
39655;DHT22;25336;59.944;11.010;2022-09-17T00:32:32;12.30;53.80
39655;DHT22;25336;59.944;11.010;2022-09-17T00:34:58;12.30;53.80
39655;DHT22;25336;59.944;11.010;2022-09-17T00:37:24;12.30;53.80
39655;DHT22;25336;59.944;11.010;2022-09-17T00:39:49;12.30;53.80
39655;DHT22;25336;59.944;11.010;2022-09-17T00:42:16;12.20;53.80
39655;DHT22;25336;59.944;11.010;2022-09-17T00:44:53;12.20;53.90
39655;DHT22;25336;59.944;11.010;2022-09-17T00:47:23;12.20;54.10
39655;DHT22;25336;59.944;11.010;2022-09-17T00:49:53;12.20;54.10
39655;DHT22;25336;59.944;11.010;2022-09-17T00:52:24;12.20;54.20
39655;DHT22;25336;59.944;11.010;2022-09-17T00:55:18;12.40;54.30
39655;DHT22;25336;59.944;11.010;2022-09-17T00:57:47;12.10;54.50
39655;DHT22;25336;59.944;11.010;2022-09-17T01:00:14;12.10;54.10
39655;DHT22;25336;59.944;11.010;2022-09-17T01:02:41;12.10;54.10
39655;DHT22;25336;59.944;11.010;2022-09-17T01:05:08;12.50;54.50
39655;DHT22;25336;59.944;11.010;2022-09-17T01:16:19;12.10;54.50
39655;DHT22;25336;59.944;11.010;2022-09-17T01:22:10;12.00;54.60
39655;DHT22;25336;59.944;11.010;2022-09-17T01:33:01;11.90;54.80
39655;DHT22;25336;59.944;11.010;2022-09-17T01:35:40;11.80;54.90
39655;DHT22;25336;59.944;11.010;2022-09-17T01:38:31;11.80;54.90
39655;DHT22;25336;59.944;11.010;2022-09-17T01:44:11;11.70;55.10
39655;DHT22;25336;59.944;11.010;2022-09-17T01:46:55;11.70;55.00
39655;DHT22;25336;59.944;11.010;2022-09-17T01:49:22;11.70;55.10
39655;DHT22;25336;59.944;11.010;2022-09-17T01:51:53;11.60;54.90
39655;DHT22;25336;59.944;11.010;2022-09-17T01:54:32;11.60;55.00
39655;DHT22;25336;59.944;11.010;2022-09-17T01:57:05;11.60;55.10
39655;DHT22;25336;59.944;11.010;2022-09-17T01:59:44;11.60;55.10
39655;DHT22;25336;59.944;11.010;2022-09-17T02:02:22;11.60;55.20
39655;DHT22;25336;59.944;11.010;2022-09-17T02:05:09;11.60;55.20
39655;DHT22;25336;59.944;11.010;2022-09-17T02:07:46;11.60;55.40
39655;DHT22;25336;59.944;11.010;2022-09-17T02:10:17;11.60;55.30
39655;DHT22;25336;59.944;11.010;2022-09-17T02:12:48;12.80;55.80
39655;DHT22;25336;59.944;11.010;2022-09-17T02:15:22;11.60;55.30
39655;DHT22;25336;59.944;11.010;2022-09-17T02:20:38;11.50;55.30
39655;DHT22;25336;59.944;11.010;2022-09-17T02:23:12;11.50;55.30
39655;DHT22;25336;59.944;11.010;2022-09-17T02:25:46;11.50;55.30
39655;DHT22;25336;59.944;11.010;2022-09-17T02:28:42;11.50;55.40
39655;DHT22;25336;59.944;11.010;2022-09-17T02:31:10;11.50;55.60
39655;DHT22;25336;59.944;11.010;2022-09-17T02:33:37;11.00;55.10
39655;DHT22;25336;59.944;11.010;2022-09-17T02:36:04;12.30;55.80
39655;DHT22;25336;59.944;11.010;2022-09-17T02:38:30;11.40;55.40
39655;DHT22;25336;59.944;11.010;2022-09-17T02:41:20;12.60;56.10
39655;DHT22;25336;59.944;11.010;2022-09-17T02:44:00;11.40;55.80
39655;DHT22;25336;59.944;11.010;2022-09-17T02:52:21;11.40;55.60
39655;DHT22;25336;59.944;11.010;2022-09-17T03:00:21;11.40;56.20
39655;DHT22;25336;59.944;11.010;2022-09-17T03:02:56;11.30;55.80
39655;DHT22;25336;59.944;11.010;2022-09-17T03:05:25;11.30;56.00
39655;DHT22;25336;59.944;11.010;2022-09-17T03:07:54;10.70;55.60
39655;DHT22;25336;59.944;11.010;2022-09-17T03:10:21;11.30;56.00
39655;DHT22;25336;59.944;11.010;2022-09-17T03:12:47;12.80;56.80
39655;DHT22;25336;59.944;11.010;2022-09-17T03:15:13;11.30;56.10
39655;DHT22;25336;59.944;11.010;2022-09-17T03:17:39;11.20;56.20
39655;DHT22;25336;59.944;11.010;2022-09-17T03:20:05;11.20;56.20
39655;DHT22;25336;59.944;11.010;2022-09-17T03:22:30;11.20;56.30
39655;DHT22;25336;59.944;11.010;2022-09-17T03:24:56;11.20;56.40
39655;DHT22;25336;59.944;11.010;2022-09-17T03:27:22;11.20;56.50
39655;DHT22;25336;59.944;11.010;2022-09-17T03:29:47;12.60;57.10
39655;DHT22;25336;59.944;11.010;2022-09-17T03:32:13;11.20;56.40
39655;DHT22;25336;59.944;11.010;2022-09-17T03:34:38;11.10;56.50
39655;DHT22;25336;59.944;11.010;2022-09-17T03:37:04;12.20;57.10
39655;DHT22;25336;59.944;11.010;2022-09-17T03:39:30;11.10;56.60
39655;DHT22;25336;59.944;11.010;2022-09-17T03:41:56;11.10;56.60
39655;DHT22;25336;59.944;11.010;2022-09-17T03:44:21;11.10;56.50
39655;DHT22;25336;59.944;11.010;2022-09-17T03:46:49;12.00;57.00
39655;DHT22;25336;59.944;11.010;2022-09-17T03:49:14;11.10;56.60
39655;DHT22;25336;59.944;11.010;2022-09-17T03:51:40;12.00;56.90
39655;DHT22;25336;59.944;11.010;2022-09-17T03:54:06;11.20;56.60
39655;DHT22;25336;59.944;11.010;2022-09-17T03:56:31;11.10;56.60
39655;DHT22;25336;59.944;11.010;2022-09-17T03:58:58;11.10;56.50
39655;DHT22;25336;59.944;11.010;2022-09-17T04:01:25;12.40;57.20
39655;DHT22;25336;59.944;11.010;2022-09-17T04:03:51;11.20;56.70
39655;DHT22;25336;59.944;11.010;2022-09-17T04:06:17;11.10;56.60
39655;DHT22;25336;59.944;11.010;2022-09-17T04:08:43;11.10;56.80
39655;DHT22;25336;59.944;11.010;2022-09-17T04:11:08;11.10;56.70
39655;DHT22;25336;59.944;11.010;2022-09-17T04:13:34;11.30;56.70
39655;DHT22;25336;59.944;11.010;2022-09-17T04:16:00;11.10;56.80
39655;DHT22;25336;59.944;11.010;2022-09-17T04:18:26;11.20;56.80
39655;DHT22;25336;59.944;11.010;2022-09-17T04:20:52;11.20;56.80
39655;DHT22;25336;59.944;11.010;2022-09-17T04:23:18;11.20;56.80
39655;DHT22;25336;59.944;11.010;2022-09-17T04:25:43;12.50;57.40
39655;DHT22;25336;59.944;11.010;2022-09-17T04:28:09;11.20;57.40
39655;DHT22;25336;59.944;11.010;2022-09-17T04:30:36;11.20;56.90
39655;DHT22;25336;59.944;11.010;2022-09-17T04:33:02;12.10;57.30
39655;DHT22;25336;59.944;11.010;2022-09-17T04:35:28;11.20;56.90
39655;DHT22;25336;59.944;11.010;2022-09-17T04:37:54;11.40;57.00
39655;DHT22;25336;59.944;11.010;2022-09-17T04:40:21;11.20;57.00
39655;DHT22;25336;59.944;11.010;2022-09-17T04:42:47;11.60;57.20
39655;DHT22;25336;59.944;11.010;2022-09-17T04:45:13;11.70;57.30
39655;DHT22;25336;59.944;11.010;2022-09-17T04:47:39;11.10;57.00
39655;DHT22;25336;59.944;11.010;2022-09-17T04:50:05;12.00;57.50
39655;DHT22;25336;59.944;11.010;2022-09-17T04:52:31;11.10;57.10
39655;DHT22;25336;59.944;11.010;2022-09-17T04:54:57;11.00;57.30
39655;DHT22;25336;59.944;11.010;2022-09-17T04:57:23;11.50;57.60
39655;DHT22;25336;59.944;11.010;2022-09-17T04:59:50;10.90;57.40
39655;DHT22;25336;59.944;11.010;2022-09-17T05:02:16;10.80;57.50
39655;DHT22;25336;59.944;11.010;2022-09-17T05:04:42;10.70;57.60
39655;DHT22;25336;59.944;11.010;2022-09-17T05:07:08;12.10;58.40
39655;DHT22;25336;59.944;11.010;2022-09-17T05:09:34;10.60;57.90
39655;DHT22;25336;59.944;11.010;2022-09-17T05:11:59;11.80;58.60
39655;DHT22;25336;59.944;11.010;2022-09-17T05:14:25;11.00;58.40
39655;DHT22;25336;59.944;11.010;2022-09-17T05:16:50;10.50;58.30
39655;DHT22;25336;59.944;11.010;2022-09-17T05:19:16;11.70;59.10
39655;DHT22;25336;59.944;11.010;2022-09-17T05:21:41;10.40;58.60
39655;DHT22;25336;59.944;11.010;2022-09-17T05:24:07;10.30;58.70
39655;DHT22;25336;59.944;11.010;2022-09-17T05:26:33;10.80;59.00
39655;DHT22;25336;59.944;11.010;2022-09-17T05:28:59;10.30;58.90
39655;DHT22;25336;59.944;11.010;2022-09-17T05:31:24;10.30;59.00
39655;DHT22;25336;59.944;11.010;2022-09-17T05:33:50;10.50;59.30
39655;DHT22;25336;59.944;11.010;2022-09-17T05:36:15;11.60;59.90
39655;DHT22;25336;59.944;11.010;2022-09-17T05:38:41;10.30;59.40
39655;DHT22;25336;59.944;11.010;2022-09-17T05:41:07;11.00;59.70
39655;DHT22;25336;59.944;11.010;2022-09-17T05:43:33;10.30;59.40
39655;DHT22;25336;59.944;11.010;2022-09-17T05:46:02;10.40;59.60
39655;DHT22;25336;59.944;11.010;2022-09-17T05:48:28;10.40;59.70
39655;DHT22;25336;59.944;11.010;2022-09-17T05:50:54;10.40;59.60
39655;DHT22;25336;59.944;11.010;2022-09-17T05:53:20;10.30;59.60
39655;DHT22;25336;59.944;11.010;2022-09-17T05:55:46;10.30;59.60
39655;DHT22;25336;59.944;11.010;2022-09-17T05:58:16;10.30;59.60
39655;DHT22;25336;59.944;11.010;2022-09-17T06:00:45;10.90;59.90
39655;DHT22;25336;59.944;11.010;2022-09-17T06:03:16;11.80;60.40
39655;DHT22;25336;59.944;11.010;2022-09-17T06:05:42;10.40;59.80
39655;DHT22;25336;59.944;11.010;2022-09-17T06:08:09;10.90;59.90
39655;DHT22;25336;59.944;11.010;2022-09-17T06:10:35;10.50;59.60
39655;DHT22;25336;59.944;11.010;2022-09-17T06:13:01;10.60;59.60
39655;DHT22;25336;59.944;11.010;2022-09-17T06:15:27;10.90;59.70
39655;DHT22;25336;59.944;11.010;2022-09-17T06:17:53;10.70;59.60
39655;DHT22;25336;59.944;11.010;2022-09-17T06:20:19;10.80;59.50
39655;DHT22;25336;59.944;11.010;2022-09-17T06:22:45;12.30;60.30
39655;DHT22;25336;59.944;11.010;2022-09-17T06:25:11;11.80;60.00
39655;DHT22;25336;59.944;11.010;2022-09-17T06:27:37;12.20;59.90
39655;DHT22;25336;59.944;11.010;2022-09-17T06:30:03;11.30;59.30
39655;DHT22;25336;59.944;11.010;2022-09-17T06:32:29;11.10;59.10
39655;DHT22;25336;59.944;11.010;2022-09-17T06:34:55;11.30;59.10
39655;DHT22;25336;59.944;11.010;2022-09-17T06:37:28;11.30;59.00
39655;DHT22;25336;59.944;11.010;2022-09-17T06:39:55;11.20;58.90
39655;DHT22;25336;59.944;11.010;2022-09-17T06:42:20;11.30;58.70
39655;DHT22;25336;59.944;11.010;2022-09-17T06:44:46;11.40;58.50
39655;DHT22;25336;59.944;11.010;2022-09-17T06:47:12;11.70;58.60
39655;DHT22;25336;59.944;11.010;2022-09-17T06:49:38;11.70;58.50
39655;DHT22;25336;59.944;11.010;2022-09-17T06:52:03;12.10;58.60
39655;DHT22;25336;59.944;11.010;2022-09-17T06:54:29;12.70;58.90
39655;DHT22;25336;59.944;11.010;2022-09-17T06:56:55;11.70;58.60
39655;DHT22;25336;59.944;11.010;2022-09-17T06:59:21;11.80;58.50
39655;DHT22;25336;59.944;11.010;2022-09-17T07:01:47;11.90;58.60
39655;DHT22;25336;59.944;11.010;2022-09-17T07:04:12;12.00;58.50
39655;DHT22;25336;59.944;11.010;2022-09-17T07:06:38;12.00;58.20
39655;DHT22;25336;59.944;11.010;2022-09-17T07:09:04;12.70;58.40
39655;DHT22;25336;59.944;11.010;2022-09-17T07:11:31;12.20;58.10
39655;DHT22;25336;59.944;11.010;2022-09-17T07:13:58;12.30;58.00
39655;DHT22;25336;59.944;11.010;2022-09-17T07:16:24;12.40;57.60
39655;DHT22;25336;59.944;11.010;2022-09-17T07:18:51;12.50;57.20
39655;DHT22;25336;59.944;11.010;2022-09-17T07:21:17;12.60;57.30
39655;DHT22;25336;59.944;11.010;2022-09-17T07:23:43;12.70;57.00
39655;DHT22;25336;59.944;11.010;2022-09-17T07:26:14;14.10;57.40
39655;DHT22;25336;59.944;11.010;2022-09-17T07:28:41;12.90;56.50
39655;DHT22;25336;59.944;11.010;2022-09-17T07:31:11;13.00;57.00
39655;DHT22;25336;59.944;11.010;2022-09-17T07:33:37;13.10;56.20
39655;DHT22;25336;59.944;11.010;2022-09-17T07:36:06;14.30;56.70
39655;DHT22;25336;59.944;11.010;2022-09-17T07:38:32;13.30;55.80
39655;DHT22;25336;59.944;11.010;2022-09-17T07:41:09;13.40;55.30
39655;DHT22;25336;59.944;11.010;2022-09-17T07:43:37;13.50;54.60
39655;DHT22;25336;59.944;11.010;2022-09-17T07:46:04;13.60;55.10
39655;DHT22;25336;59.944;11.010;2022-09-17T07:48:30;13.70;54.70
39655;DHT22;25336;59.944;11.010;2022-09-17T07:50:57;13.70;54.50
39655;DHT22;25336;59.944;11.010;2022-09-17T07:53:23;13.80;54.00
39655;DHT22;25336;59.944;11.010;2022-09-17T07:55:58;13.90;53.70
39655;DHT22;25336;59.944;11.010;2022-09-17T07:58:29;13.90;53.60
39655;DHT22;25336;59.944;11.010;2022-09-17T08:01:06;15.40;54.30
39655;DHT22;25336;59.944;11.010;2022-09-17T08:03:33;14.10;53.10
39655;DHT22;25336;59.944;11.010;2022-09-17T08:06:13;14.10;53.20
39655;DHT22;25336;59.944;11.010;2022-09-17T08:08:40;14.20;52.60
39655;DHT22;25336;59.944;11.010;2022-09-17T08:11:06;14.20;52.80
39655;DHT22;25336;59.944;11.010;2022-09-17T08:13:33;14.30;52.70
39655;DHT22;25336;59.944;11.010;2022-09-17T08:16:04;14.30;52.60
39655;DHT22;25336;59.944;11.010;2022-09-17T08:18:31;14.30;52.30
39655;DHT22;25336;59.944;11.010;2022-09-17T08:20:58;14.40;52.20
39655;DHT22;25336;59.944;11.010;2022-09-17T08:23:25;14.40;52.10
39655;DHT22;25336;59.944;11.010;2022-09-17T08:25:55;14.40;51.90
39655;DHT22;25336;59.944;11.010;2022-09-17T08:28:23;14.50;51.50
39655;DHT22;25336;59.944;11.010;2022-09-17T08:30:50;14.60;51.80
39655;DHT22;25336;59.944;11.010;2022-09-17T08:33:16;14.60;51.90
39655;DHT22;25336;59.944;11.010;2022-09-17T08:35:49;14.70;51.80
39655;DHT22;25336;59.944;11.010;2022-09-17T08:38:15;14.80;51.60
39655;DHT22;25336;59.944;11.010;2022-09-17T08:40:55;14.80;51.60
39655;DHT22;25336;59.944;11.010;2022-09-17T08:43:26;14.90;51.60
39655;DHT22;25336;59.944;11.010;2022-09-17T08:45:57;15.10;51.40
39655;DHT22;25336;59.944;11.010;2022-09-17T08:48:30;15.20;51.00
39655;DHT22;25336;59.944;11.010;2022-09-17T08:50:59;15.30;51.00
39655;DHT22;25336;59.944;11.010;2022-09-17T08:56:09;15.50;49.80
39655;DHT22;25336;59.944;11.010;2022-09-17T09:01:58;15.70;49.90
39655;DHT22;25336;59.944;11.010;2022-09-17T09:07:10;15.90;48.60
39655;DHT22;25336;59.944;11.010;2022-09-17T09:09:45;16.00;47.50
39655;DHT22;25336;59.944;11.010;2022-09-17T09:12:23;16.10;47.90
39655;DHT22;25336;59.944;11.010;2022-09-17T09:15:22;16.10;47.70
39655;DHT22;25336;59.944;11.010;2022-09-17T09:17:51;16.20;46.80
39655;DHT22;25336;59.944;11.010;2022-09-17T09:20:35;16.20;47.90
39655;DHT22;25336;59.944;11.010;2022-09-17T09:23:17;16.30;46.60
39655;DHT22;25336;59.944;11.010;2022-09-17T09:25:58;16.40;46.60
39655;DHT22;25336;59.944;11.010;2022-09-17T09:28:46;16.40;46.30
39655;DHT22;25336;59.944;11.010;2022-09-17T09:34:16;16.50;46.10
39655;DHT22;25336;59.944;11.010;2022-09-17T09:36:43;16.50;46.40
39655;DHT22;25336;59.944;11.010;2022-09-17T09:39:16;16.60;46.50
39655;DHT22;25336;59.944;11.010;2022-09-17T09:41:46;16.60;46.40
39655;DHT22;25336;59.944;11.010;2022-09-17T09:44:14;16.70;46.60
39655;DHT22;25336;59.944;11.010;2022-09-17T09:50:14;16.80;46.10
39655;DHT22;25336;59.944;11.010;2022-09-17T09:52:48;16.80;46.40
39655;DHT22;25336;59.944;11.010;2022-09-17T09:55:34;16.90;46.20
39655;DHT22;25336;59.944;11.010;2022-09-17T09:58:26;16.90;45.50
39655;DHT22;25336;59.944;11.010;2022-09-17T10:00:53;16.90;45.80
39655;DHT22;25336;59.944;11.010;2022-09-17T10:03:31;17.00;45.80
39655;DHT22;25336;59.944;11.010;2022-09-17T10:06:01;16.90;45.40
39655;DHT22;25336;59.944;11.010;2022-09-17T10:08:30;17.00;45.90
39655;DHT22;25336;59.944;11.010;2022-09-17T10:11:02;17.00;46.10
39655;DHT22;25336;59.944;11.010;2022-09-17T10:13:30;17.10;45.90
39655;DHT22;25336;59.944;11.010;2022-09-17T10:16:17;17.10;46.20
39655;DHT22;25336;59.944;11.010;2022-09-17T10:18:44;17.20;46.10
39655;DHT22;25336;59.944;11.010;2022-09-17T10:21:31;17.30;46.10
39655;DHT22;25336;59.944;11.010;2022-09-17T10:23:57;18.60;46.70
39655;DHT22;25336;59.944;11.010;2022-09-17T10:26:35;17.40;45.60
39655;DHT22;25336;59.944;11.010;2022-09-17T10:29:10;17.50;44.80
39655;DHT22;25336;59.944;11.010;2022-09-17T10:31:54;17.60;45.50
39655;DHT22;25336;59.944;11.010;2022-09-17T10:34:22;17.70;44.20
39655;DHT22;25336;59.944;11.010;2022-09-17T10:36:48;17.70;45.20
39655;DHT22;25336;59.944;11.010;2022-09-17T10:41:59;17.80;43.90
39655;DHT22;25336;59.944;11.010;2022-09-17T10:44:27;17.80;44.00
39655;DHT22;25336;59.944;11.010;2022-09-17T10:46:54;17.90;43.70
39655;DHT22;25336;59.944;11.010;2022-09-17T10:49:36;17.90;43.40
39655;DHT22;25336;59.944;11.010;2022-09-17T10:52:31;17.90;43.80
39655;DHT22;25336;59.944;11.010;2022-09-17T10:55:14;17.90;43.00
39655;DHT22;25336;59.944;11.010;2022-09-17T11:00:22;18.00;42.80
39655;DHT22;25336;59.944;11.010;2022-09-17T11:11:39;18.20;43.10
39655;DHT22;25336;59.944;11.010;2022-09-17T11:16:47;18.20;43.40
39655;DHT22;25336;59.944;11.010;2022-09-17T11:20:16;18.20;43.60
39655;DHT22;25336;59.944;11.010;2022-09-17T11:22:36;18.20;42.20
39655;DHT22;25336;59.944;11.010;2022-09-17T11:25:45;18.20;42.60
39655;DHT22;25336;59.944;11.010;2022-09-17T12:12:41;16.50;43.30
39655;DHT22;25336;59.944;11.010;2022-09-17T12:15:17;17.90;41.40
39655;DHT22;25336;59.944;11.010;2022-09-17T12:17:58;17.50;41.00
39655;DHT22;25336;59.944;11.010;2022-09-17T12:20:32;18.10;41.50
39655;DHT22;25336;59.944;11.010;2022-09-17T12:23:05;18.30;41.50
39655;DHT22;25336;59.944;11.010;2022-09-17T12:25:43;18.40;41.90
39655;DHT22;25336;59.944;11.010;2022-09-17T12:28:18;18.40;41.00
39655;DHT22;25336;59.944;11.010;2022-09-17T12:30:54;18.40;40.90
39655;DHT22;25336;59.944;11.010;2022-09-17T12:33:36;18.50;41.20
39655;DHT22;25336;59.944;11.010;2022-09-17T12:36:25;18.50;40.70
39655;DHT22;25336;59.944;11.010;2022-09-17T12:39:21;18.50;40.60
39655;DHT22;25336;59.944;11.010;2022-09-17T12:45:08;18.60;40.90
39655;DHT22;25336;59.944;11.010;2022-09-17T12:53:21;18.60;40.90
39655;DHT22;25336;59.944;11.010;2022-09-17T12:58:49;18.70;41.10
39655;DHT22;25336;59.944;11.010;2022-09-17T13:01:32;18.70;40.70
39655;DHT22;25336;59.944;11.010;2022-09-17T13:13:19;18.70;41.20
39655;DHT22;25336;59.944;11.010;2022-09-17T13:21:19;18.70;40.50
39655;DHT22;25336;59.944;11.010;2022-09-17T13:23:49;18.70;40.70
39655;DHT22;25336;59.944;11.010;2022-09-17T13:26:20;18.70;40.60
39655;DHT22;25336;59.944;11.010;2022-09-17T13:28:49;18.70;39.90
39655;DHT22;25336;59.944;11.010;2022-09-17T13:31:46;18.70;40.20
39655;DHT22;25336;59.944;11.010;2022-09-17T13:36:46;18.70;40.10
39655;DHT22;25336;59.944;11.010;2022-09-17T13:42:04;18.60;40.00
39655;DHT22;25336;59.944;11.010;2022-09-17T13:44:36;18.60;40.50
39655;DHT22;25336;59.944;11.010;2022-09-17T13:47:23;18.60;40.40
39655;DHT22;25336;59.944;11.010;2022-09-17T13:50:39;18.60;40.50
39655;DHT22;25336;59.944;11.010;2022-09-17T13:52:49;18.60;40.20
39655;DHT22;25336;59.944;11.010;2022-09-17T13:55:40;18.60;40.50
39655;DHT22;25336;59.944;11.010;2022-09-17T13:58:23;18.60;40.30
39655;DHT22;25336;59.944;11.010;2022-09-17T14:01:10;18.60;40.10
39655;DHT22;25336;59.944;11.010;2022-09-17T14:27:14;18.80;40.70
39655;DHT22;25336;59.944;11.010;2022-09-17T14:38:01;19.00;40.60
39655;DHT22;25336;59.944;11.010;2022-09-17T14:40:27;19.10;40.10
39655;DHT22;25336;59.944;11.010;2022-09-17T14:42:56;19.20;40.10
39655;DHT22;25336;59.944;11.010;2022-09-17T14:45:29;19.20;40.10
39655;DHT22;25336;59.944;11.010;2022-09-17T14:48:29;19.30;39.70
39655;DHT22;25336;59.944;11.010;2022-09-17T14:53:44;19.30;38.50
39655;DHT22;25336;59.944;11.010;2022-09-17T14:56:14;19.30;38.70
39655;DHT22;25336;59.944;11.010;2022-09-17T14:58:46;19.30;38.40
39655;DHT22;25336;59.944;11.010;2022-09-17T15:01:25;19.30;38.20
39655;DHT22;25336;59.944;11.010;2022-09-17T15:06:46;18.20;37.60
39655;DHT22;25336;59.944;11.010;2022-09-17T15:09:23;19.10;38.40
39655;DHT22;25336;59.944;11.010;2022-09-17T15:11:53;19.10;38.70
39655;DHT22;25336;59.944;11.010;2022-09-17T15:14:22;19.10;38.90
39655;DHT22;25336;59.944;11.010;2022-09-17T15:16:56;19.10;39.00
39655;DHT22;25336;59.944;11.010;2022-09-17T15:19:44;19.10;38.80
39655;DHT22;25336;59.944;11.010;2022-09-17T15:22:47;19.00;38.30
39655;DHT22;25336;59.944;11.010;2022-09-17T15:25:20;19.00;38.30
39655;DHT22;25336;59.944;11.010;2022-09-17T15:27:51;18.90;38.60
39655;DHT22;25336;59.944;11.010;2022-09-17T15:30:23;18.90;38.80
39655;DHT22;25336;59.944;11.010;2022-09-17T15:32:55;18.80;38.70
39655;DHT22;25336;59.944;11.010;2022-09-17T15:37:54;18.70;39.00
39655;DHT22;25336;59.944;11.010;2022-09-17T15:40:30;18.70;39.30
39655;DHT22;25336;59.944;11.010;2022-09-17T15:43:27;18.60;39.30
39655;DHT22;25336;59.944;11.010;2022-09-17T15:45:54;18.60;39.60
39655;DHT22;25336;59.944;11.010;2022-09-17T15:50:56;18.70;39.80
39655;DHT22;25336;59.944;11.010;2022-09-17T15:53:30;18.70;40.00
39655;DHT22;25336;59.944;11.010;2022-09-17T16:08:59;18.50;40.30
39655;DHT22;25336;59.944;11.010;2022-09-17T16:11:31;18.50;40.50
39655;DHT22;25336;59.944;11.010;2022-09-17T16:14:03;18.50;40.70
39655;DHT22;25336;59.944;11.010;2022-09-17T16:16:33;18.50;40.70
39655;DHT22;25336;59.944;11.010;2022-09-17T16:18:59;18.50;40.70
39655;DHT22;25336;59.944;11.010;2022-09-17T16:21:25;18.50;40.90
39655;DHT22;25336;59.944;11.010;2022-09-17T16:23:53;18.50;40.90
39655;DHT22;25336;59.944;11.010;2022-09-17T16:26:22;18.50;41.00
39655;DHT22;25336;59.944;11.010;2022-09-17T16:28:52;18.50;41.00
39655;DHT22;25336;59.944;11.010;2022-09-17T16:31:19;18.50;40.90
39655;DHT22;25336;59.944;11.010;2022-09-17T16:33:45;18.50;41.00
39655;DHT22;25336;59.944;11.010;2022-09-17T16:36:11;18.50;41.10
39655;DHT22;25336;59.944;11.010;2022-09-17T16:38:37;18.50;41.50
39655;DHT22;25336;59.944;11.010;2022-09-17T16:41:04;18.50;41.60
39655;DHT22;25336;59.944;11.010;2022-09-17T16:43:31;18.50;41.40
39655;DHT22;25336;59.944;11.010;2022-09-17T16:46:09;18.50;41.20
39655;DHT22;25336;59.944;11.010;2022-09-17T16:48:36;18.50;41.50
39655;DHT22;25336;59.944;11.010;2022-09-17T16:51:09;18.50;41.70
39655;DHT22;25336;59.944;11.010;2022-09-17T16:53:37;18.50;42.00
39655;DHT22;25336;59.944;11.010;2022-09-17T16:56:11;18.50;41.70
39655;DHT22;25336;59.944;11.010;2022-09-17T16:58:38;18.50;41.50
39655;DHT22;25336;59.944;11.010;2022-09-17T17:01:13;18.40;41.80
39655;DHT22;25336;59.944;11.010;2022-09-17T17:03:40;18.40;42.10
39655;DHT22;25336;59.944;11.010;2022-09-17T17:06:14;19.80;42.90
39655;DHT22;25336;59.944;11.010;2022-09-17T17:08:42;18.30;42.50
39655;DHT22;25336;59.944;11.010;2022-09-17T17:11:15;18.20;42.50
39655;DHT22;25336;59.944;11.010;2022-09-17T17:13:42;18.20;43.10
39655;DHT22;25336;59.944;11.010;2022-09-17T17:16:13;18.10;43.00
39655;DHT22;25336;59.944;11.010;2022-09-17T17:18:42;18.00;43.10
39655;DHT22;25336;59.944;11.010;2022-09-17T17:21:15;18.00;43.30
39655;DHT22;25336;59.944;11.010;2022-09-17T17:23:41;17.90;43.60
39655;DHT22;25336;59.944;11.010;2022-09-17T17:26:14;17.80;43.60
39655;DHT22;25336;59.944;11.010;2022-09-17T17:28:42;17.80;43.90
39655;DHT22;25336;59.944;11.010;2022-09-17T17:31:15;17.70;44.40
39655;DHT22;25336;59.944;11.010;2022-09-17T17:33:43;17.60;44.50
39655;DHT22;25336;59.944;11.010;2022-09-17T17:36:10;17.60;44.80
39655;DHT22;25336;59.944;11.010;2022-09-17T17:38:40;17.50;45.00
39655;DHT22;25336;59.944;11.010;2022-09-17T17:41:12;17.40;45.20
39655;DHT22;25336;59.944;11.010;2022-09-17T17:43:39;17.40;45.60
39655;DHT22;25336;59.944;11.010;2022-09-17T17:46:07;17.40;45.90
39655;DHT22;25336;59.944;11.010;2022-09-17T17:48:33;17.30;46.20
39655;DHT22;25336;59.944;11.010;2022-09-17T17:51:09;17.30;46.30
39655;DHT22;25336;59.944;11.010;2022-09-17T17:53:35;17.20;47.10
39655;DHT22;25336;59.944;11.010;2022-09-17T17:56:05;17.10;46.80
39655;DHT22;25336;59.944;11.010;2022-09-17T17:58:32;17.10;46.80
39655;DHT22;25336;59.944;11.010;2022-09-17T18:00:58;17.00;46.60
39655;DHT22;25336;59.944;11.010;2022-09-17T18:03:24;17.00;46.50
39655;DHT22;25336;59.944;11.010;2022-09-17T18:05:54;17.00;46.50
39655;DHT22;25336;59.944;11.010;2022-09-17T18:08:22;17.00;46.70
39655;DHT22;25336;59.944;11.010;2022-09-17T18:10:55;16.90;46.40
39655;DHT22;25336;59.944;11.010;2022-09-17T18:13:22;16.90;46.90
39655;DHT22;25336;59.944;11.010;2022-09-17T18:15:52;16.90;46.10
39655;DHT22;25336;59.944;11.010;2022-09-17T18:18:19;16.80;45.70
39655;DHT22;25336;59.944;11.010;2022-09-17T18:20:45;16.80;45.50
39655;DHT22;25336;59.944;11.010;2022-09-17T18:23:10;16.70;45.30
39655;DHT22;25336;59.944;11.010;2022-09-17T18:25:36;16.70;45.20
39655;DHT22;25336;59.944;11.010;2022-09-17T18:28:02;16.70;45.20
39655;DHT22;25336;59.944;11.010;2022-09-17T18:30:28;16.70;45.00
39655;DHT22;25336;59.944;11.010;2022-09-17T18:32:53;16.70;45.10
39655;DHT22;25336;59.944;11.010;2022-09-17T18:35:19;16.70;44.90
39655;DHT22;25336;59.944;11.010;2022-09-17T18:37:45;16.60;44.80
39655;DHT22;25336;59.944;11.010;2022-09-17T18:40:11;16.60;45.10
39655;DHT22;25336;59.944;11.010;2022-09-17T18:42:36;16.60;44.70
39655;DHT22;25336;59.944;11.010;2022-09-17T18:45:02;16.60;44.60
39655;DHT22;25336;59.944;11.010;2022-09-17T18:47:28;16.60;44.50
39655;DHT22;25336;59.944;11.010;2022-09-17T18:49:53;16.60;44.50
39655;DHT22;25336;59.944;11.010;2022-09-17T18:52:19;16.50;44.50
39655;DHT22;25336;59.944;11.010;2022-09-17T18:54:45;16.50;44.40
39655;DHT22;25336;59.944;11.010;2022-09-17T18:57:11;16.50;44.40